Time;durP1;ratioP1;P1;durP2;ratioP2;P2;SDS_P1;SDS_P2;PMS_P1;PMS_P2;Temp;Humidity;BMP_temperature;BMP_pressure;BME280_temperature;BME280_humidity;BME280_pressure;Samples;Min_cycle;Max_cycle;Signal;HPM_P1;HPM_P2
2022/12/13 00:00:23;;;;;;;31.63;23.30;;;;;;;;;;1043529;28;20016;-73
2022/12/13 00:00:54;;;;;;;23.42;19.90;;;;;;;;;;1039051;28;20025;-73
2022/12/13 00:01:25;;;;;;;24.60;20.80;;;;;;;;;;1039539;28;20064;-73
2022/12/13 00:01:56;;;;;;;23.73;21.60;;;;;;;;;;1041927;28;20028;-73
2022/12/13 00:02:26;;;;;;;22.88;19.95;;;;;;;;;;1041764;28;20020;-73
2022/12/13 00:02:57;;;;;;;19.65;17.85;;;;;;;;;;1041828;28;20052;-73
2022/12/13 00:03:27;;;;;;;33.45;22.60;;;;;;;;;;1045272;28;20060;-73
2022/12/13 00:03:59;;;;;;;22.40;17.95;;;;;;;;;;1045509;28;20033;-73
2022/12/13 00:04:29;;;;;;;25.45;17.75;;;;;;;;;;1044554;28;20024;-73
2022/12/13 00:05:00;;;;;;;27.80;23.67;;;;;;;;;;1043458;28;20028;-73
2022/12/13 00:05:31;;;;;;;32.47;25.13;;;;;;;;;;1043755;28;20013;-73
2022/12/13 00:06:05;;;;;;;39.08;26.92;;;;;;;;;;1043850;28;20540;-73
2022/12/13 00:06:36;;;;;;;29.98;17.50;;;;;;;;;;1047389;28;20017;-73
2022/12/13 00:07:06;;;;;;;22.35;17.60;;;;;;;;;;1043409;28;20858;-73
2022/12/13 00:07:37;;;;;;;21.63;18.00;;;;;;;;;;1043625;28;20115;-73
2022/12/13 00:08:07;;;;;;;23.77;21.50;;;;;;;;;;1043489;28;20024;-73
2022/12/13 00:08:38;;;;;;;26.95;23.75;;;;;;;;;;1043610;28;20043;-73
2022/12/13 00:09:11;;;;;;;39.20;23.88;;;;;;;;;;1041470;28;20028;-73
2022/12/13 00:09:42;;;;;;;29.13;23.55;;;;;;;;;;1038131;28;20033;-73
2022/12/13 00:10:12;;;;;;;34.03;20.58;;;;;;;;;;1041448;28;20021;-73
2022/12/13 00:10:43;;;;;;;21.00;17.70;;;;;;;;;;1041920;28;20446;-73
2022/12/13 00:11:14;;;;;;;22.80;19.48;;;;;;;;;;1041242;28;20022;-73
2022/12/13 00:11:44;;;;;;;25.63;22.83;;;;;;;;;;1045782;28;20063;-73
2022/12/13 00:12:15;;;;;;;29.10;21.92;;;;;;;;;;1043699;28;20016;-73
2022/12/13 00:12:46;;;;;;;17.65;16.25;;;;;;;;;;1041593;28;20025;-73
2022/12/13 00:13:16;;;;;;;39.80;25.55;;;;;;;;;;1041157;28;20026;-73
2022/12/13 00:13:47;;;;;;;21.38;19.33;;;;;;;;;;1041562;28;20032;-73
2022/12/13 00:14:17;;;;;;;21.98;17.65;;;;;;;;;;1041632;28;20025;-73
2022/12/13 00:14:48;;;;;;;57.83;27.13;;;;;;;;;;1041510;28;20029;-73
2022/12/13 00:15:19;;;;;;;19.75;17.73;;;;;;;;;;1041499;28;20520;-73
2022/12/13 00:15:56;;;;;;;28.08;25.10;;;;;;;;;;1037690;28;20064;-75
2022/12/13 00:16:27;;;;;;;20.17;18.17;;;;;;;;;;1037410;28;20025;-73
2022/12/13 00:16:57;;;;;;;33.33;21.02;;;;;;;;;;1037218;28;20853;-75
2022/12/13 00:17:30;;;;;;;27.38;24.52;;;;;;;;;;1038129;28;20460;-75
2022/12/13 00:18:00;;;;;;;31.83;25.42;;;;;;;;;;1040731;28;20075;-75
2022/12/13 00:18:31;;;;;;;25.17;22.65;;;;;;;;;;1037606;28;20026;-75
2022/12/13 00:19:02;;;;;;;16.15;14.65;;;;;;;;;;1037166;28;20413;-75
2022/12/13 00:19:32;;;;;;;31.70;23.40;;;;;;;;;;1037503;28;20062;-75
2022/12/13 00:20:03;;;;;;;26.00;22.83;;;;;;;;;;1041578;28;20021;-75
2022/12/13 00:20:38;;;;;;;45.92;28.75;;;;;;;;;;1042051;28;20056;-75
2022/12/13 00:21:11;;;;;;;22.83;20.67;;;;;;;;;;1041406;28;20075;-75
2022/12/13 00:21:42;;;;;;;34.30;19.48;;;;;;;;;;1041504;28;20021;-75
2022/12/13 00:22:13;;;;;;;27.48;20.77;;;;;;;;;;1041789;28;20463;-75
2022/12/13 00:22:43;;;;;;;28.13;25.25;;;;;;;;;;1045306;28;20036;-75
2022/12/13 00:23:14;;;;;;;27.95;22.30;;;;;;;;;;1045606;28;20025;-75
2022/12/13 00:23:45;;;;;;;28.50;16.75;;;;;;;;;;1043712;28;20090;-75
2022/12/13 00:24:15;;;;;;;22.50;18.92;;;;;;;;;;1042486;28;20082;-75
2022/12/13 00:24:46;;;;;;;21.67;19.73;;;;;;;;;;1041194;28;20024;-75
2022/12/13 00:25:19;;;;;;;40.30;24.05;;;;;;;;;;1040963;28;20029;-75
2022/12/13 00:25:50;;;;;;;19.58;16.73;;;;;;;;;;1042930;28;20013;-75
2022/12/13 00:26:22;;;;;;;28.55;23.65;;;;;;;;;;1043676;28;20044;-75
2022/12/13 00:26:54;;;;;;;29.17;19.63;;;;;;;;;;1043708;28;20023;-75
2022/12/13 00:27:24;;;;;;;48.97;22.65;;;;;;;;;;1042772;28;20032;-75
2022/12/13 00:27:55;;;;;;;30.63;18.20;;;;;;;;;;1046033;23;20112;-75
2022/12/13 00:28:26;;;;;;;27.27;20.33;;;;;;;;;;1037560;28;20116;-75
2022/12/13 00:29:00;;;;;;;24.38;19.23;;;;;;;;;;1037376;28;20069;-75
2022/12/13 00:29:31;;;;;;;34.17;24.90;;;;;;;;;;1041582;28;20055;-75
2022/12/13 00:30:02;;;;;;;33.38;21.02;;;;;;;;;;1037408;28;20037;-75
2022/12/13 00:30:33;;;;;;;18.85;17.05;;;;;;;;;;1037535;28;20014;-73
2022/12/13 00:31:04;;;;;;;16.80;13.45;;;;;;;;;;1037688;28;20033;-73
2022/12/13 00:31:35;;;;;;;22.02;19.20;;;;;;;;;;1037704;28;20159;-72
2022/12/13 00:32:05;;;;;;;29.45;25.17;;;;;;;;;;1041388;28;20075;-72
2022/12/13 00:32:36;;;;;;;16.38;15.10;;;;;;;;;;1041833;28;20037;-72
2022/12/13 00:33:07;;;;;;;23.58;21.30;;;;;;;;;;1041192;28;20021;-72
2022/12/13 00:33:38;;;;;;;21.98;20.25;;;;;;;;;;1041593;28;20191;-75
2022/12/13 00:34:09;;;;;;;19.80;17.92;;;;;;;;;;1041304;28;20052;-75
2022/12/13 00:34:40;;;;;;;33.97;18.58;;;;;;;;;;1041308;28;20537;-75
2022/12/13 00:35:10;;;;;;;33.15;23.63;;;;;;;;;;1041305;28;20025;-74
2022/12/13 00:35:41;;;;;;;22.98;20.77;;;;;;;;;;1041570;28;20409;-74
2022/12/13 00:36:12;;;;;;;21.90;20.23;;;;;;;;;;1041509;28;20538;-74
2022/12/13 00:36:43;;;;;;;43.67;25.88;;;;;;;;;;1041660;28;20017;-74
2022/12/13 00:37:14;;;;;;;25.55;18.83;;;;;;;;;;1042735;28;20025;-74
2022/12/13 00:37:44;;;;;;;20.95;18.85;;;;;;;;;;1041746;28;20106;-74
2022/12/13 00:38:15;;;;;;;18.77;16.95;;;;;;;;;;1041086;28;20239;-74
2022/12/13 00:38:45;;;;;;;30.23;17.30;;;;;;;;;;1040312;28;20422;-73
2022/12/13 00:39:19;;;;;;;18.67;17.08;;;;;;;;;;1041116;28;20412;-73
2022/12/13 00:39:50;;;;;;;24.17;21.77;;;;;;;;;;1039383;28;20037;-73
2022/12/13 00:40:21;;;;;;;30.02;25.10;;;;;;;;;;1041044;28;20489;-73
2022/12/13 00:40:52;;;;;;;30.70;23.08;;;;;;;;;;1041194;28;20013;-73
2022/12/13 00:41:23;;;;;;;21.60;19.73;;;;;;;;;;1041501;28;20337;-73
2022/12/13 00:41:53;;;;;;;28.42;21.50;;;;;;;;;;1042522;28;20105;-74
2022/12/13 00:42:24;;;;;;;32.05;20.40;;;;;;;;;;1041545;28;20048;-75
2022/12/13 00:42:55;;;;;;;28.70;17.95;;;;;;;;;;1037264;28;20022;-75
2022/12/13 00:43:25;;;;;;;19.70;17.92;;;;;;;;;;1041213;28;20025;-75
2022/12/13 00:43:56;;;;;;;21.70;19.85;;;;;;;;;;1041353;28;20540;-73
2022/12/13 00:44:27;;;;;;;19.52;17.60;;;;;;;;;;1041653;28;20031;-74
2022/12/13 00:44:58;;;;;;;28.70;20.90;;;;;;;;;;1040765;28;20019;-75
2022/12/13 00:45:28;;;;;;;18.65;17.02;;;;;;;;;;1037300;28;20061;-75
2022/12/13 00:45:59;;;;;;;19.85;18.10;;;;;;;;;;1033474;28;20032;-75
2022/12/13 00:46:29;;;;;;;27.00;20.13;;;;;;;;;;1037287;28;20053;-75
2022/12/13 00:47:00;;;;;;;14.30;13.00;;;;;;;;;;1037098;28;20086;-75
2022/12/13 00:47:31;;;;;;;42.50;27.08;;;;;;;;;;1040382;28;20385;-75
2022/12/13 00:48:01;;;;;;;22.45;14.40;;;;;;;;;;1041646;28;20469;-75
2022/12/13 00:48:32;;;;;;;24.35;21.48;;;;;;;;;;1041825;28;20026;-75
2022/12/13 00:49:03;;;;;;;28.80;20.38;;;;;;;;;;1041827;28;20044;-73
2022/12/13 00:49:34;;;;;;;16.08;14.07;;;;;;;;;;1041968;28;20025;-72
2022/12/13 00:50:05;;;;;;;19.73;17.85;;;;;;;;;;1041569;28;20017;-72
2022/12/13 00:50:36;;;;;;;22.23;20.13;;;;;;;;;;1041570;28;20111;-72
2022/12/13 00:51:11;;;;;;;20.00;17.98;;;;;;;;;;1040523;28;20092;-72
2022/12/13 00:51:42;;;;;;;24.15;18.52;;;;;;;;;;1041338;28;20021;-72
2022/12/13 00:52:12;;;;;;;33.80;21.85;;;;;;;;;;1041359;28;20392;-72
2022/12/13 00:52:43;;;;;;;25.60;17.17;;;;;;;;;;1041108;28;20068;-72
2022/12/13 00:53:14;;;;;;;23.38;17.77;;;;;;;;;;1039237;28;20087;-72
2022/12/13 00:53:44;;;;;;;22.92;19.88;;;;;;;;;;1041556;28;20022;-75
2022/12/13 00:54:15;;;;;;;19.27;17.75;;;;;;;;;;1037360;28;20117;-75
2022/12/13 00:54:46;;;;;;;18.10;16.67;;;;;;;;;;1039344;28;20010;-75
2022/12/13 00:55:16;;;;;;;39.53;21.90;;;;;;;;;;1039093;28;20064;-75
2022/12/13 00:55:47;;;;;;;23.63;21.33;;;;;;;;;;1036897;28;20507;-75
2022/12/13 00:56:20;;;;;;;24.45;21.60;;;;;;;;;;1037686;28;20033;-75
2022/12/13 00:56:51;;;;;;;26.30;22.88;;;;;;;;;;1037129;28;20399;-75
2022/12/13 00:57:21;;;;;;;21.80;18.40;;;;;;;;;;1037302;28;20030;-73
2022/12/13 00:57:52;;;;;;;22.42;19.67;;;;;;;;;;1038046;28;20037;-73
2022/12/13 00:58:23;;;;;;;25.23;20.30;;;;;;;;;;1041298;28;20025;-73
2022/12/13 00:58:54;;;;;;;24.15;21.83;;;;;;;;;;1041125;28;20420;-73
2022/12/13 00:59:25;;;;;;;36.00;21.83;;;;;;;;;;1036703;28;20482;-73
2022/12/13 00:59:55;;;;;;;44.47;20.50;;;;;;;;;;1037100;28;20021;-74
2022/12/13 01:00:26;;;;;;;25.00;20.60;;;;;;;;;;1037327;28;20029;-74
2022/12/13 01:01:03;;;;;;;40.15;27.42;;;;;;;;;;1039615;28;20025;-75
2022/12/13 01:01:35;;;;;;;30.48;23.23;;;;;;;;;;1041318;28;20531;-75
2022/12/13 01:02:05;;;;;;;30.88;26.42;;;;;;;;;;1041456;28;20024;-73
2022/12/13 01:02:36;;;;;;;21.95;20.38;;;;;;;;;;1041074;28;20024;-74
2022/12/13 01:03:19;;;;;;;23.05;20.40;;;;;;;;;;1038849;28;20393;-75
2022/12/13 01:03:50;;;;;;;22.10;20.13;;;;;;;;;;1040627;28;20025;-75
2022/12/13 01:04:20;;;;;;;23.00;21.20;;;;;;;;;;1041428;28;20025;-75
2022/12/13 01:04:51;;;;;;;24.40;21.98;;;;;;;;;;1040562;28;20124;-75
2022/12/13 01:05:21;;;;;;;33.50;26.08;;;;;;;;;;1041211;28;20028;-75
2022/12/13 01:05:52;;;;;;;43.20;27.67;;;;;;;;;;1040883;28;20087;-75
2022/12/13 01:06:26;;;;;;;27.27;22.17;;;;;;;;;;1041323;28;20544;-73
2022/12/13 01:06:57;;;;;;;27.38;21.15;;;;;;;;;;1041158;28;20413;-73
2022/12/13 01:07:27;;;;;;;25.83;14.68;;;;;;;;;;1040987;28;20030;-74
2022/12/13 01:07:58;;;;;;;14.65;13.40;;;;;;;;;;1040728;28;20025;-75
2022/12/13 01:08:28;;;;;;;34.58;26.83;;;;;;;;;;1037551;28;20484;-75
2022/12/13 01:08:59;;;;;;;41.30;25.13;;;;;;;;;;1034473;28;20116;-74
2022/12/13 01:09:31;;;;;;;45.38;22.05;;;;;;;;;;1035604;28;20022;-74
2022/12/13 01:10:02;;;;;;;30.58;23.52;;;;;;;;;;1035656;28;20029;-75
2022/12/13 01:10:32;;;;;;;32.42;18.65;;;;;;;;;;1041351;28;20075;-75
2022/12/13 01:11:04;;;;;;;20.90;16.58;;;;;;;;;;1040644;28;20029;-75
2022/12/13 01:11:34;;;;;;;21.63;18.17;;;;;;;;;;1041590;28;20033;-75
2022/12/13 01:12:05;;;;;;;21.67;16.48;;;;;;;;;;1038109;28;20033;-75
2022/12/13 01:12:36;;;;;;;19.25;17.75;;;;;;;;;;1035151;28;20014;-75
2022/12/13 01:13:07;;;;;;;25.85;20.73;;;;;;;;;;1034927;28;20030;-75
2022/12/13 01:13:37;;;;;;;17.13;15.40;;;;;;;;;;1039525;28;20128;-75
2022/12/13 01:14:08;;;;;;;23.63;18.25;;;;;;;;;;1041031;28;20064;-75
2022/12/13 01:14:39;;;;;;;24.45;21.75;;;;;;;;;;1039820;28;20393;-75
2022/12/13 01:15:10;;;;;;;25.05;19.65;;;;;;;;;;1040963;28;20029;-75
2022/12/13 01:15:41;;;;;;;24.35;16.00;;;;;;;;;;1041771;28;20053;-75
2022/12/13 01:16:12;;;;;;;24.55;20.60;;;;;;;;;;1041671;28;20079;-74
2022/12/13 01:16:43;;;;;;;19.00;17.13;;;;;;;;;;1041786;28;20025;-74
2022/12/13 01:17:14;;;;;;;22.83;20.42;;;;;;;;;;1041186;28;20108;-74
2022/12/13 01:17:46;;;;;;;28.25;25.17;;;;;;;;;;1041030;28;20492;-74
2022/12/13 01:18:17;;;;;;;20.27;16.08;;;;;;;;;;1039462;28;20033;-74
2022/12/13 01:18:47;;;;;;;24.13;22.00;;;;;;;;;;1039280;28;20033;-74
2022/12/13 01:19:18;;;;;;;21.40;19.48;;;;;;;;;;1035302;28;20046;-74
2022/12/13 01:19:48;;;;;;;17.02;15.52;;;;;;;;;;1039138;28;20091;-74
2022/12/13 01:20:19;;;;;;;26.35;23.38;;;;;;;;;;1040506;28;20014;-74
2022/12/13 01:21:16;;;;;;;30.50;20.98;;;;;;;;;;1037253;28;20037;-74
2022/12/13 01:21:46;;;;;;;34.22;27.95;;;;;;;;;;1035674;28;20581;-74
2022/12/13 01:22:17;;;;;;;21.92;20.15;;;;;;;;;;1040692;28;20047;-74
2022/12/13 01:22:47;;;;;;;33.45;17.20;;;;;;;;;;1041485;28;20518;-74
2022/12/13 01:23:18;;;;;;;33.38;24.80;;;;;;;;;;1041128;28;20025;-74
2022/12/13 01:23:49;;;;;;;22.42;20.77;;;;;;;;;;1041453;28;20118;-74
2022/12/13 01:24:21;;;;;;;18.42;14.75;;;;;;;;;;1041733;28;20017;-74
2022/12/13 01:24:52;;;;;;;32.17;28.25;;;;;;;;;;1041226;28;20478;-74
2022/12/13 01:25:22;;;;;;;18.10;16.58;;;;;;;;;;1041476;28;20016;-74
2022/12/13 01:25:54;;;;;;;24.58;18.30;;;;;;;;;;1041034;28;20020;-75
2022/12/13 01:26:24;;;;;;;34.47;22.15;;;;;;;;;;1040996;28;20440;-75
2022/12/13 01:26:55;;;;;;;46.80;23.85;;;;;;;;;;1040004;28;20437;-75
2022/12/13 01:27:26;;;;;;;21.20;19.15;;;;;;;;;;1041224;28;20097;-75
2022/12/13 01:27:57;;;;;;;20.05;18.05;;;;;;;;;;1039385;28;20052;-75
2022/12/13 01:28:27;;;;;;;26.98;24.50;;;;;;;;;;1040423;28;20436;-75
2022/12/13 01:28:58;;;;;;;19.83;17.63;;;;;;;;;;1039278;28;20500;-75
2022/12/13 01:29:29;;;;;;;23.02;20.27;;;;;;;;;;1039053;28;20026;-75
2022/12/13 01:29:59;;;;;;;26.60;20.70;;;;;;;;;;1041779;28;20025;-75
2022/12/13 01:30:30;;;;;;;33.15;23.10;;;;;;;;;;1040726;28;20028;-74
2022/12/13 01:31:02;;;;;;;27.70;25.25;;;;;;;;;;1041200;28;20037;-74
2022/12/13 01:31:33;;;;;;;27.98;24.85;;;;;;;;;;1040551;28;20027;-74
2022/12/13 01:32:04;;;;;;;21.35;19.30;;;;;;;;;;1041526;28;20048;-74
2022/12/13 01:32:35;;;;;;;20.73;15.98;;;;;;;;;;1039120;28;20014;-74
2022/12/13 01:33:06;;;;;;;40.80;22.85;;;;;;;;;;1034363;28;20448;-74
2022/12/13 01:33:37;;;;;;;25.60;19.98;;;;;;;;;;1035242;28;20032;-74
2022/12/13 01:34:11;;;;;;;24.38;22.10;;;;;;;;;;1032016;28;20486;-74
2022/12/13 01:34:42;;;;;;;39.15;26.52;;;;;;;;;;1031074;28;20026;-74
2022/12/13 01:35:13;;;;;;;22.80;20.65;;;;;;;;;;1030813;28;20026;-74
2022/12/13 01:35:44;;;;;;;32.22;21.45;;;;;;;;;;1032667;28;20022;-74
2022/12/13 01:36:16;;;;;;;40.53;24.20;;;;;;;;;;1031002;28;20433;-74
2022/12/13 01:36:48;;;;;;;21.70;19.85;;;;;;;;;;1033153;28;20136;-75
2022/12/13 01:37:19;;;;;;;24.73;21.38;;;;;;;;;;1036656;28;20013;-75
2022/12/13 01:37:49;;;;;;;21.58;19.35;;;;;;;;;;1038044;28;20030;-75
2022/12/13 01:38:21;;;;;;;31.60;22.65;;;;;;;;;;1039316;28;20025;-75
2022/12/13 01:38:51;;;;;;;26.65;23.40;;;;;;;;;;1040331;28;20152;-75
2022/12/13 01:39:22;;;;;;;38.15;28.25;;;;;;;;;;1039929;28;20382;-75
2022/12/13 01:39:53;;;;;;;16.80;15.20;;;;;;;;;;1034700;28;20025;-75
2022/12/13 01:40:23;;;;;;;40.25;21.60;;;;;;;;;;1035843;28;20096;-75
2022/12/13 01:40:57;;;;;;;33.47;21.92;;;;;;;;;;1035575;28;20026;-75
2022/12/13 01:41:28;;;;;;;35.75;18.95;;;;;;;;;;1039822;28;20026;-75
2022/12/13 01:42:01;;;;;;;35.20;23.92;;;;;;;;;;1034768;28;20452;-75
2022/12/13 01:42:32;;;;;;;22.45;20.15;;;;;;;;;;1036939;28;20044;-75
2022/12/13 01:43:04;;;;;;;41.63;25.60;;;;;;;;;;1028480;28;20050;-75
2022/12/13 01:43:40;;;;;;;22.90;20.90;;;;;;;;;;1027521;28;20037;-75
2022/12/13 01:44:29;;;;;;;26.40;22.42;;;;;;;;;;1036280;28;20018;-75
2022/12/13 01:45:19;;;;;;;28.88;24.02;;;;;;;;;;1038137;28;20027;-75
2022/12/13 01:45:50;;;;;;;;;;;;;;;;;;1040134;28;20056;-75
2022/12/13 01:46:21;;;;;;;19.55;17.90;;;;;;;;;;1035359;28;19928;-75
2022/12/13 01:46:52;;;;;;;24.10;19.00;;;;;;;;;;1036427;28;20029;-75
2022/12/13 01:47:31;;;;;;;24.58;18.35;;;;;;;;;;1035601;28;20017;-75
2022/12/13 01:48:04;;;;;;;24.65;20.65;;;;;;;;;;1035004;28;20025;-75
2022/12/13 01:48:38;;;;;;;30.00;23.92;;;;;;;;;;1034888;28;20615;-75
2022/12/13 01:49:12;;;;;;;28.33;24.73;;;;;;;;;;1035262;28;20102;-75
2022/12/13 01:49:43;;;;;;;28.48;25.42;;;;;;;;;;1038915;28;20017;-76
2022/12/13 01:50:16;;;;;;;23.17;20.08;;;;;;;;;;1035067;28;20033;-75
2022/12/13 01:50:48;;;;;;;27.70;24.23;;;;;;;;;;1035204;28;20378;-74
2022/12/13 01:51:23;;;;;;;18.63;16.92;;;;;;;;;;1036722;28;20025;-74
2022/12/13 01:51:58;;;;;;;21.27;14.43;;;;;;;;;;1037433;28;20025;-74
2022/12/13 01:52:31;;;;;;;25.20;23.05;;;;;;;;;;1038045;28;20040;-74
2022/12/13 01:53:04;;;;;;;19.73;17.90;;;;;;;;;;1033256;28;20567;-74
2022/12/13 01:53:36;;;;;;;39.42;22.45;;;;;;;;;;1034181;28;20084;-74
2022/12/13 01:54:10;;;;;;;21.40;19.35;;;;;;;;;;1028976;28;20033;-74
2022/12/13 01:54:47;;;;;;;24.83;22.40;;;;;;;;;;1030125;28;20076;-74
2022/12/13 01:55:19;;;;;;;27.17;24.02;;;;;;;;;;1034024;28;20036;-74
2022/12/13 01:55:58;;;;;;;26.58;23.40;;;;;;;;;;1037572;28;20033;-74
2022/12/13 01:56:40;;;;;;;28.85;20.90;;;;;;;;;;1037765;28;20029;-74
2022/12/13 01:57:16;;;;;;;25.38;17.65;;;;;;;;;;1036871;28;20029;-74
2022/12/13 01:57:48;;;;;;;23.55;21.25;;;;;;;;;;1033736;28;20045;-74
2022/12/13 01:58:20;;;;;;;19.73;17.90;;;;;;;;;;1034926;28;20033;-74
2022/12/13 01:58:52;;;;;;;24.80;21.08;;;;;;;;;;1034240;28;20037;-74
2022/12/13 01:59:22;;;;;;;25.45;22.95;;;;;;;;;;1033254;28;20022;-74
2022/12/13 01:59:54;;;;;;;23.73;20.90;;;;;;;;;;1031175;28;20104;-74
2022/12/13 02:00:25;;;;;;;31.38;24.85;;;;;;;;;;1036338;28;20033;-74
2022/12/13 02:00:58;;;;;;;37.13;27.13;;;;;;;;;;1036427;28;20056;-74
2022/12/13 02:01:30;;;;;;;37.50;23.52;;;;;;;;;;1039558;28;20029;-74
2022/12/13 02:02:00;;;;;;;20.50;18.73;;;;;;;;;;1038970;28;20096;-76
2022/12/13 02:02:31;;;;;;;25.30;22.98;;;;;;;;;;1031792;28;20517;-74
2022/12/13 02:03:02;;;;;;;36.80;18.38;;;;;;;;;;1033932;28;20545;-76
2022/12/13 02:03:34;;;;;;;27.80;24.92;;;;;;;;;;1030634;28;20437;-75
2022/12/13 02:04:05;;;;;;;20.50;18.52;;;;;;;;;;1034405;28;20026;-77
2022/12/13 02:04:44;;;;;;;22.83;18.17;;;;;;;;;;1040000;28;20401;-77
2022/12/13 02:05:22;;;;;;;31.48;17.88;;;;;;;;;;1038719;28;20037;-75
2022/12/13 02:06:05;;;;;;;29.27;26.33;;;;;;;;;;1040503;28;20096;-74
2022/12/13 02:06:40;;;;;;;27.70;23.30;;;;;;;;;;1040866;28;20373;-76
2022/12/13 02:07:13;;;;;;;21.33;19.45;;;;;;;;;;1039122;28;20033;-75
2022/12/13 02:07:44;;;;;;;35.53;24.50;;;;;;;;;;1039323;28;20441;-76
2022/12/13 02:08:14;;;;;;;36.00;22.48;;;;;;;;;;1039205;28;20029;-75
2022/12/13 02:08:45;;;;;;;19.35;16.75;;;;;;;;;;1039970;28;20033;-75
2022/12/13 02:09:16;;;;;;;25.80;23.17;;;;;;;;;;1038856;28;20057;-76
2022/12/13 02:09:48;;;;;;;34.10;21.40;;;;;;;;;;1038564;28;20043;-77
2022/12/13 02:10:18;;;;;;;25.15;23.02;;;;;;;;;;1039414;28;20025;-76
2022/12/13 02:10:49;;;;;;;37.25;21.00;;;;;;;;;;1039329;28;20032;-75
2022/12/13 02:11:20;;;;;;;18.02;16.42;;;;;;;;;;1038468;28;20025;-77
2022/12/13 02:11:51;;;;;;;15.75;14.68;;;;;;;;;;1038038;28;20033;-77
2022/12/13 02:12:21;;;;;;;19.85;18.25;;;;;;;;;;1039159;28;20018;-76
2022/12/13 02:12:53;;;;;;;27.33;23.48;;;;;;;;;;1037869;28;20742;-75
2022/12/13 02:13:24;;;;;;;70.82;31.90;;;;;;;;;;1040140;28;20048;-75
2022/12/13 02:13:54;;;;;;;22.88;20.70;;;;;;;;;;1039167;28;20108;-75
2022/12/13 02:14:25;;;;;;;33.67;21.80;;;;;;;;;;1037681;28;20094;-75
2022/12/13 02:14:57;;;;;;;27.40;22.20;;;;;;;;;;1035085;28;20450;-75
2022/12/13 02:15:33;;;;;;;22.80;20.08;;;;;;;;;;1038866;28;20478;-75
2022/12/13 02:16:10;;;;;;;22.38;20.35;;;;;;;;;;1038425;28;20029;-75
2022/12/13 02:17:07;;;;;;;18.92;17.35;;;;;;;;;;1039873;28;20029;-75
2022/12/13 02:18:01;;;;;;;22.65;18.73;;;;;;;;;;1023645;28;20038;-75
2022/12/13 02:18:51;;;;;;;34.40;22.90;;;;;;;;;;1038184;28;20033;-75
2022/12/13 02:19:40;;;;;;;28.35;22.00;;;;;;;;;;1038301;28;20095;-75
2022/12/13 02:20:18;;;;;;;23.15;20.95;;;;;;;;;;1037048;28;20061;-75
2022/12/13 02:20:51;;;;;;;28.55;22.58;;;;;;;;;;1037494;28;20028;-75
2022/12/13 02:21:32;;;;;;;18.05;16.40;;;;;;;;;;1038938;28;20555;-75
2022/12/13 02:22:09;;;;;;;29.05;26.25;;;;;;;;;;1037349;28;20092;-75
2022/12/13 02:22:48;;;;;;;27.88;25.23;;;;;;;;;;1036893;28;20086;-75
2022/12/13 02:23:21;;;;;;;25.15;22.55;;;;;;;;;;1036384;28;20909;-76
2022/12/13 02:24:01;;;;;;;26.27;21.40;;;;;;;;;;1033608;28;20040;-76
2022/12/13 02:24:39;;;;;;;26.38;23.88;;;;;;;;;;1034790;28;20060;-76
2022/12/13 02:25:29;;;;;;;22.77;20.88;;;;;;;;;;1037182;28;20080;-76
2022/12/13 02:26:08;;;;;;;24.63;19.70;;;;;;;;;;1039417;28;20029;-75
2022/12/13 02:26:53;;;;;;;25.35;22.30;;;;;;;;;;1039256;28;20540;-75
2022/12/13 02:27:49;;;;;;;29.60;22.02;;;;;;;;;;1039527;28;20029;-75
2022/12/13 02:28:31;;;;;;;31.55;26.48;;;;;;;;;;1039577;28;20467;-75
2022/12/13 02:29:14;;;;;;;29.63;19.75;;;;;;;;;;1037898;28;20346;-75
2022/12/13 02:29:51;;;;;;;23.77;21.80;;;;;;;;;;1036144;28;20501;-75
2022/12/13 02:30:32;;;;;;;23.98;21.65;;;;;;;;;;1039920;28;20025;-75
2022/12/13 02:31:08;;;;;;;21.73;19.75;;;;;;;;;;1039877;28;20021;-75
2022/12/13 02:31:42;;;;;;;19.40;17.85;;;;;;;;;;1039145;28;20021;-75
2022/12/13 02:32:15;;;;;;;21.77;19.73;;;;;;;;;;1040309;28;20060;-76
2022/12/13 02:32:55;;;;;;;21.45;19.40;;;;;;;;;;1040930;28;20060;-76
2022/12/13 02:33:49;;;;;;;31.67;20.02;;;;;;;;;;1040881;28;20057;-75
2022/12/13 02:34:23;;;;;;;24.55;19.70;;;;;;;;;;1039942;28;20021;-74
2022/12/13 02:34:54;;;;;;;26.38;23.52;;;;;;;;;;1039572;28;20555;-75
2022/12/13 02:35:35;;;;;;;24.95;18.65;;;;;;;;;;1040344;28;20056;-76
2022/12/13 02:36:16;;;;;;;28.30;24.67;;;;;;;;;;1038457;28;20029;-75
2022/12/13 02:36:47;;;;;;;25.85;23.20;;;;;;;;;;1038791;28;20442;-73
2022/12/13 02:37:22;;;;;;;27.98;18.80;;;;;;;;;;1038532;28;20063;-74
2022/12/13 02:37:55;;;;;;;18.52;16.83;;;;;;;;;;1036515;28;20382;-76
2022/12/13 02:38:46;;;;;;;26.15;23.60;;;;;;;;;;1037612;28;20033;-75
2022/12/13 02:39:20;;;;;;;20.88;17.92;;;;;;;;;;1036410;28;20065;-75
2022/12/13 02:40:03;;;;;;;35.58;23.52;;;;;;;;;;1039991;28;20030;-74
2022/12/13 02:40:36;;;;;;;23.45;21.23;;;;;;;;;;1039259;28;20039;-75
2022/12/13 02:41:15;;;;;;;23.35;18.98;;;;;;;;;;1036533;28;20021;-74
2022/12/13 02:42:08;;;;;;;33.97;20.77;;;;;;;;;;1039117;28;20072;-77
2022/12/13 02:43:00;;;;;;;27.00;23.42;;;;;;;;;;1028447;28;20465;-76
2022/12/13 02:43:39;;;;;;;21.10;16.92;;;;;;;;;;1029336;28;20083;-79
2022/12/13 02:44:14;;;;;;;25.13;22.92;;;;;;;;;;1031637;28;20059;-77
2022/12/13 02:44:49;;;;;;;32.75;21.70;;;;;;;;;;1037570;28;20116;-75
2022/12/13 02:45:22;;;;;;;40.03;26.23;;;;;;;;;;1037901;28;20041;-76
2022/12/13 02:45:56;;;;;;;22.83;18.42;;;;;;;;;;1034724;28;20034;-75
2022/12/13 02:46:29;;;;;;;27.55;23.33;;;;;;;;;;1034794;28;20121;-76
2022/12/13 02:47:02;;;;;;;19.48;17.95;;;;;;;;;;1032328;28;20681;-75
2022/12/13 02:47:33;;;;;;;23.80;21.75;;;;;;;;;;1036575;28;20378;-75
2022/12/13 02:48:04;;;;;;;26.75;23.90;;;;;;;;;;1036647;28;20168;-75
2022/12/13 02:48:37;;;;;;;22.67;19.38;;;;;;;;;;1036988;28;20075;-75
2022/12/13 02:49:09;;;;;;;20.40;18.70;;;;;;;;;;1039651;28;20056;-75
2022/12/13 02:49:41;;;;;;;13.93;12.57;;;;;;;;;;1041809;28;20021;-76
2022/12/13 02:50:13;;;;;;;23.15;16.90;;;;;;;;;;1040787;28;20025;-76
2022/12/13 02:50:45;;;;;;;20.65;15.27;;;;;;;;;;1040045;28;20024;-76
2022/12/13 02:51:16;;;;;;;35.72;22.40;;;;;;;;;;1039502;28;20397;-75
2022/12/13 02:51:49;;;;;;;37.05;18.77;;;;;;;;;;1040307;28;20029;-76
2022/12/13 02:52:21;;;;;;;23.90;19.92;;;;;;;;;;1035246;28;20030;-76
2022/12/13 02:52:53;;;;;;;22.23;20.10;;;;;;;;;;1038497;28;20025;-76
2022/12/13 02:53:24;;;;;;;34.50;22.90;;;;;;;;;;1038901;28;20029;-75
2022/12/13 02:53:55;;;;;;;23.05;20.65;;;;;;;;;;1036351;28;20131;-76
2022/12/13 02:54:26;;;;;;;31.33;23.25;;;;;;;;;;1035263;28;20642;-76
2022/12/13 02:54:58;;;;;;;20.98;18.95;;;;;;;;;;1035484;28;20088;-76
2022/12/13 02:55:31;;;;;;;21.77;19.73;;;;;;;;;;1033744;28;20557;-75
2022/12/13 02:56:01;;;;;;;37.72;21.48;;;;;;;;;;1034753;28;20035;-75
2022/12/13 02:56:32;;;;;;;22.52;17.30;;;;;;;;;;1030088;28;20026;-75
2022/12/13 02:57:03;;;;;;;23.63;20.85;;;;;;;;;;1031862;28;20034;-75
2022/12/13 02:57:41;;;;;;;22.33;19.25;;;;;;;;;;1032931;28;20059;-75
2022/12/13 02:58:13;;;;;;;29.58;26.60;;;;;;;;;;1037166;28;20112;-75
2022/12/13 02:58:46;;;;;;;19.83;16.60;;;;;;;;;;1037243;28;20033;-74
2022/12/13 02:59:17;;;;;;;22.88;21.08;;;;;;;;;;1038449;28;20029;-74
2022/12/13 02:59:49;;;;;;;25.00;19.70;;;;;;;;;;1039638;28;20041;-75
2022/12/13 03:00:22;;;;;;;20.77;18.55;;;;;;;;;;1036828;28;20397;-76
2022/12/13 03:00:53;;;;;;;24.50;20.27;;;;;;;;;;1031162;28;20687;-76
2022/12/13 03:01:41;;;;;;;40.05;15.20;;;;;;;;;;1034953;28;20018;-76
2022/12/13 03:02:26;;;;;;;22.63;20.55;;;;;;;;;;1036048;28;20442;-75
2022/12/13 03:03:07;;;;;;;42.78;22.52;;;;;;;;;;1029140;28;20117;-75
2022/12/13 03:04:04;;;;;;;22.17;16.33;;;;;;;;;;1034434;28;20574;-74
2022/12/13 03:06:28;;;;;;;17.15;15.43;;;;;;;;;;1035320;28;20029;-76
2022/12/13 03:06:51;;;;;;;12.77;11.60;;;;;;;;;;1037405;28;20029;-75
2022/12/13 03:07:27;;;;;;;19.67;15.52;;;;;;;;;;1039431;28;20033;-76
2022/12/13 03:08:15;;;;;;;17.92;15.77;;;;;;;;;;1038715;28;20577;-77
2022/12/13 03:08:45;;;;;;;31.27;23.25;;;;;;;;;;1035562;28;20021;-75
2022/12/13 03:09:16;;;;;;;19.10;17.70;;;;;;;;;;1037482;28;20025;-75
2022/12/13 03:09:52;;;;;;;17.90;16.48;;;;;;;;;;1034728;28;20013;-75
2022/12/13 03:10:30;;;;;;;17.58;15.77;;;;;;;;;;1035095;28;20056;-75
2022/12/13 03:11:04;;;;;;;16.15;13.65;;;;;;;;;;1033434;28;20029;-75
2022/12/13 03:13:37;;;;;;;17.10;15.82;;;;;;;;;;1037443;28;20037;-75
2022/12/13 03:14:10;;;;;;;18.80;17.00;;;;;;;;;;1039155;28;20084;-76
2022/12/13 03:14:55;;;;;;;21.73;17.67;;;;;;;;;;1039469;28;20168;-75
2022/12/13 03:15:40;;;;;;;19.45;17.75;;;;;;;;;;1040286;28;20062;-76
2022/12/13 03:16:14;;;;;;;26.55;23.30;;;;;;;;;;1038666;28;20199;-76
2022/12/13 03:16:48;;;;;;;16.50;14.88;;;;;;;;;;1039562;28;20021;-75
2022/12/13 03:17:19;;;;;;;16.75;15.63;;;;;;;;;;1035565;28;20358;-75
2022/12/13 03:17:52;;;;;;;23.55;20.05;;;;;;;;;;1007488;28;20587;-75